Flight Track Log - Related Links

Times and Time Zones

All times are in EDT time to prevent confusion due to time zone crossing. See the KAP66 flight status page for this flight to view local times or setup timezone preferences in your user account.

Time Position Orientation Groundspeed Altitude Reporting Facility
EDT Latitude Longitude Course Direction KTS MPH feet Rate Location/Type
Mon 11:39:00 AM 41.3646 -70.2941 302° West  Level Estimated
Mon 11:40:00 AM 41.3832 -70.3332 302° West  Level Estimated
Mon 11:41:00 AM 41.4017 -70.3722 302° West  Level Estimated
Mon 11:42:00 AM 41.4202 -70.4113 302° West  Level Estimated
Mon 11:43:00 AM 41.4387 -70.4504 302° West  Level Estimated
Mon 11:44:00 AM 41.4572 -70.4896 302° West  Level Estimated
Mon 11:45:00 AM 41.4757 -70.5287 302° West  Level Estimated
Mon 11:46:00 AM 41.4941 -70.5679 302° West  Level Estimated
Mon 11:47:00 AM 41.5126 -70.6071 302° West  Level Estimated
Mon 11:48:00 AM 41.5310 -70.6463 302° West  Level Estimated
Mon 11:49:00 AM 41.5494 -70.6856 302° West  Level Estimated
Mon 11:50:00 AM 41.5678 -70.7249 302° West  Level Estimated
Mon 11:51:00 AM 41.5862 -70.7642 302° West  Level Estimated
Mon 11:52:00 AM 41.6046 -70.8035 302° West  Level Estimated
Mon 11:53:00 AM 41.6230 -70.8428 302° West  Level Estimated
Mon 11:54:00 AM 41.6413 -70.8822 302° West  Level Estimated
Mon 11:55:00 AM 41.6597 -70.9215 302° West  Level Estimated
Mon 11:56:00 AM 41.6766 -70.9578 302° West  Level Estimated
Mon 11:57:00 AM 41.6766 -70.9578 143° Southeast  Level Estimated
Mon 11:58:00 AM 41.6766 -70.9578 143° Southeast  Level Estimated
Mon 11:59:00 AM 41.6766 -70.9578 143° Southeast  Level Estimated
Mon 12:00:00 PM 41.6766 -70.9578 143° Southeast  Level Estimated
Mon 12:01:00 PM 41.6766 -70.9578 143° Southeast  Level Estimated
Mon 12:02:00 PM 41.6766 -70.9578 143° Southeast  Level Estimated
Mon 12:03:00 PM 41.6766 -70.9578 143° Southeast  Level Estimated
Mon 12:04:00 PM 41.6766 -70.9578 143° Southeast  Level Estimated
Mon 12:05:00 PM 41.6766 -70.9578 143° Southeast  Level Estimated
Mon 12:06:00 PM 41.6766 -70.9578 143° Southeast  Level Estimated
Mon 12:07:00 PM 41.6766 -70.9578 143° Southeast  Level Estimated
Mon 12:08:00 PM 41.6766 -70.9578 143° Southeast  Level Estimated
Mon 12:09:00 PM 41.6766 -70.9578 143° Southeast  Level Estimated
Mon 12:10:00 PM 41.6766 -70.9578 143° Southeast  Level Estimated
Mon 12:11:00 PM 41.6766 -70.9578 143° Southeast  Level Estimated
Mon 12:12:00 PM 41.6766 -70.9578 143° Southeast  Level Estimated

Login

Don't have an account? Register now (free) for customized features, flight alerts, and more!